sensor_id;sensor_type;location;lat;lon;timestamp;pressure;altitude;pressure_sealevel;temperature;humidity
16595;BME280;8410;52.532;13.336;2023-06-04T00:00:28;101741.66;;;15.61;43.22
16595;BME280;8410;52.532;13.336;2023-06-04T00:02:55;101743.56;;;15.84;43.32
16595;BME280;8410;52.532;13.336;2023-06-04T00:05:24;101731.72;;;16.35;42.07
16595;BME280;8410;52.532;13.336;2023-06-04T00:07:52;101725.56;;;16.13;42.86
16595;BME280;8410;52.532;13.336;2023-06-04T00:10:19;101723.19;;;16.64;41.61
16595;BME280;8410;52.532;13.336;2023-06-04T00:12:48;101718.72;;;16.30;42.89
16595;BME280;8410;52.532;13.336;2023-06-04T00:15:15;101719.69;;;16.62;41.91
16595;BME280;8410;52.532;13.336;2023-06-04T00:17:43;101719.63;;;16.43;42.65
16595;BME280;8410;52.532;13.336;2023-06-04T00:20:11;101720.53;;;16.51;42.84
16595;BME280;8410;52.532;13.336;2023-06-04T00:22:40;101718.81;;;16.58;42.83
16595;BME280;8410;52.532;13.336;2023-06-04T00:25:08;101717.97;;;16.61;42.87
16595;BME280;8410;52.532;13.336;2023-06-04T00:27:36;101711.81;;;16.40;42.69
16595;BME280;8410;52.532;13.336;2023-06-04T00:30:04;101710.94;;;16.32;42.93
16595;BME280;8410;52.532;13.336;2023-06-04T00:32:32;101712.63;;;16.21;43.66
16595;BME280;8410;52.532;13.336;2023-06-04T00:35:00;101708.38;;;16.40;43.21
16595;BME280;8410;52.532;13.336;2023-06-04T00:37:28;101703.94;;;16.22;43.96
16595;BME280;8410;52.532;13.336;2023-06-04T00:39:58;101711.69;;;16.14;43.90
16595;BME280;8410;52.532;13.336;2023-06-04T00:42:26;101715.09;;;16.01;43.71
16595;BME280;8410;52.532;13.336;2023-06-04T00:44:53;101719.31;;;15.85;44.31
16595;BME280;8410;52.532;13.336;2023-06-04T00:47:24;101713.41;;;16.07;44.04
16595;BME280;8410;52.532;13.336;2023-06-04T00:49:56;101713.94;;;15.63;45.19
16595;BME280;8410;52.532;13.336;2023-06-04T00:52:24;101718.91;;;15.33;45.63
16595;BME280;8410;52.532;13.336;2023-06-04T00:54:52;101719.25;;;15.73;45.51
16595;BME280;8410;52.532;13.336;2023-06-04T00:57:22;101716.66;;;15.73;45.59
16595;BME280;8410;52.532;13.336;2023-06-04T00:59:50;101711.81;;;16.31;44.44
16595;BME280;8410;52.532;13.336;2023-06-04T01:02:19;101719.38;;;15.88;44.66
16595;BME280;8410;52.532;13.336;2023-06-04T01:04:53;101714.19;;;15.88;45.07
16595;BME280;8410;52.532;13.336;2023-06-04T01:07:22;101711.53;;;15.80;45.53
16595;BME280;8410;52.532;13.336;2023-06-04T01:09:50;101717.31;;;15.46;46.37
16595;BME280;8410;52.532;13.336;2023-06-04T01:12:18;101707.06;;;15.65;45.97
16595;BME280;8410;52.532;13.336;2023-06-04T01:14:46;101706.16;;;15.59;45.87
16595;BME280;8410;52.532;13.336;2023-06-04T01:17:18;101708.91;;;15.82;45.55
16595;BME280;8410;52.532;13.336;2023-06-04T01:19:57;101713.91;;;15.57;46.35
16595;BME280;8410;52.532;13.336;2023-06-04T01:22:35;101711.53;;;15.82;45.94
16595;BME280;8410;52.532;13.336;2023-06-04T01:25:05;101710.75;;;15.98;46.04
16595;BME280;8410;52.532;13.336;2023-06-04T01:27:38;101713.03;;;15.55;46.27
16595;BME280;8410;52.532;13.336;2023-06-04T01:30:10;101712.38;;;15.75;48.90
16595;BME280;8410;52.532;13.336;2023-06-04T01:32:38;101712.94;;;15.41;47.12
16595;BME280;8410;52.532;13.336;2023-06-04T01:35:07;101711.03;;;15.22;47.43
16595;BME280;8410;52.532;13.336;2023-06-04T01:37:35;101711.53;;;14.83;47.84
16595;BME280;8410;52.532;13.336;2023-06-04T01:40:04;101706.84;;;15.38;47.18
16595;BME280;8410;52.532;13.336;2023-06-04T01:42:34;101706.63;;;15.10;47.78
16595;BME280;8410;52.532;13.336;2023-06-04T01:45:02;101713.78;;;15.39;47.28
16595;BME280;8410;52.532;13.336;2023-06-04T01:47:31;101698.88;;;15.15;47.76
16595;BME280;8410;52.532;13.336;2023-06-04T01:50:00;101704.06;;;15.18;47.97
16595;BME280;8410;52.532;13.336;2023-06-04T01:52:27;101702.69;;;15.58;47.18
16595;BME280;8410;52.532;13.336;2023-06-04T01:54:55;101700.06;;;15.55;47.08
16595;BME280;8410;52.532;13.336;2023-06-04T01:57:22;101699.78;;;15.20;47.84
16595;BME280;8410;52.532;13.336;2023-06-04T01:59:50;101696.59;;;15.53;47.65
16595;BME280;8410;52.532;13.336;2023-06-04T02:02:17;101695.34;;;15.05;48.12
16595;BME280;8410;52.532;13.336;2023-06-04T02:04:47;101697.53;;;15.63;49.74
16595;BME280;8410;52.532;13.336;2023-06-04T02:07:19;101690.28;;;15.19;49.03
16595;BME280;8410;52.532;13.336;2023-06-04T02:09:48;101694.53;;;15.15;49.00
16595;BME280;8410;52.532;13.336;2023-06-04T02:12:16;101692.84;;;15.17;48.27
16595;BME280;8410;52.532;13.336;2023-06-04T02:14:43;101692.91;;;15.24;48.54
16595;BME280;8410;52.532;13.336;2023-06-04T02:17:13;101695.53;;;15.28;48.70
16595;BME280;8410;52.532;13.336;2023-06-04T02:19:43;101687.94;;;15.51;48.70
16595;BME280;8410;52.532;13.336;2023-06-04T02:22:17;101696.19;;;15.04;49.14
16595;BME280;8410;52.532;13.336;2023-06-04T02:24:45;101688.50;;;15.13;48.97
16595;BME280;8410;52.532;13.336;2023-06-04T02:27:36;101686.06;;;15.32;48.87
16595;BME280;8410;52.532;13.336;2023-06-04T02:30:04;101682.66;;;15.42;48.50
16595;BME280;8410;52.532;13.336;2023-06-04T02:32:33;101687.91;;;15.45;48.51
16595;BME280;8410;52.532;13.336;2023-06-04T02:35:02;101692.03;;;15.21;49.16
16595;BME280;8410;52.532;13.336;2023-06-04T02:37:31;101685.03;;;15.14;49.29
16595;BME280;8410;52.532;13.336;2023-06-04T02:39:59;101686.75;;;15.15;49.12
16595;BME280;8410;52.532;13.336;2023-06-04T02:42:26;101687.91;;;15.45;49.32
16595;BME280;8410;52.532;13.336;2023-06-04T02:44:54;101684.44;;;15.49;49.19
16595;BME280;8410;52.532;13.336;2023-06-04T02:47:21;101691.38;;;15.50;50.99
16595;BME280;8410;52.532;13.336;2023-06-04T02:49:49;101697.50;;;15.58;51.40
16595;BME280;8410;52.532;13.336;2023-06-04T02:52:16;101694.91;;;15.58;51.80
16595;BME280;8410;52.532;13.336;2023-06-04T02:54:45;101697.31;;;15.35;52.90
16595;BME280;8410;52.532;13.336;2023-06-04T02:57:12;101706.00;;;15.37;53.09
16595;BME280;8410;52.532;13.336;2023-06-04T02:59:40;101702.72;;;15.61;52.49
16595;BME280;8410;52.532;13.336;2023-06-04T03:02:07;101698.34;;;15.57;52.99
16595;BME280;8410;52.532;13.336;2023-06-04T03:04:35;101700.81;;;15.39;53.14
16595;BME280;8410;52.532;13.336;2023-06-04T03:07:03;101695.66;;;15.43;53.33
16595;BME280;8410;52.532;13.336;2023-06-04T03:09:31;101698.34;;;15.57;52.93
16595;BME280;8410;52.532;13.336;2023-06-04T03:12:00;101694.03;;;15.56;53.34
16595;BME280;8410;52.532;13.336;2023-06-04T03:14:28;101692.34;;;15.64;52.90
16595;BME280;8410;52.532;13.336;2023-06-04T03:16:59;101696.44;;;15.32;53.80
16595;BME280;8410;52.532;13.336;2023-06-04T03:19:35;101698.34;;;15.57;53.17
16595;BME280;8410;52.532;13.336;2023-06-04T03:22:05;101694.06;;;15.65;53.38
16595;BME280;8410;52.532;13.336;2023-06-04T03:24:34;101701.06;;;15.70;52.79
16595;BME280;8410;52.532;13.336;2023-06-04T03:27:05;101695.00;;;15.71;52.47
16595;BME280;8410;52.532;13.336;2023-06-04T03:29:33;101694.13;;;15.69;53.08
16595;BME280;8410;52.532;13.336;2023-06-04T03:32:01;101694.97;;;15.68;52.95
16595;BME280;8410;52.532;13.336;2023-06-04T03:34:29;101698.34;;;15.57;53.45
16595;BME280;8410;52.532;13.336;2023-06-04T03:37:00;101696.84;;;15.85;52.70
16595;BME280;8410;52.532;13.336;2023-06-04T03:39:29;101698.72;;;16.14;52.20
16595;BME280;8410;52.532;13.336;2023-06-04T03:41:56;101695.44;;;16.70;52.01
16595;BME280;8410;52.532;13.336;2023-06-04T03:44:25;101683.41;;;17.29;50.46
16595;BME280;8410;52.532;13.336;2023-06-04T03:46:53;101685.03;;;18.10;49.22
16595;BME280;8410;52.532;13.336;2023-06-04T03:49:20;101685.34;;;19.12;47.25
16595;BME280;8410;52.532;13.336;2023-06-04T03:51:48;101682.38;;;19.53;46.57
16595;BME280;8410;52.532;13.336;2023-06-04T03:54:16;101676.88;;;19.84;45.43
16595;BME280;8410;52.532;13.336;2023-06-04T03:56:44;101667.00;;;20.74;44.17
16595;BME280;8410;52.532;13.336;2023-06-04T03:59:11;101663.59;;;22.97;40.60
16595;BME280;8410;52.532;13.336;2023-06-04T04:01:41;101661.66;;;24.04;38.17
16595;BME280;8410;52.532;13.336;2023-06-04T04:04:09;101651.47;;;25.57;35.98
16595;BME280;8410;52.532;13.336;2023-06-04T04:06:37;101653.81;;;26.59;34.52
16595;BME280;8410;52.532;13.336;2023-06-04T04:09:05;101643.72;;;27.54;33.31
16595;BME280;8410;52.532;13.336;2023-06-04T04:11:33;101657.88;;;27.32;32.93
16595;BME280;8410;52.532;13.336;2023-06-04T04:14:01;101656.00;;;27.55;32.29
16595;BME280;8410;52.532;13.336;2023-06-04T04:16:28;101652.22;;;28.37;30.86
16595;BME280;8410;52.532;13.336;2023-06-04T04:18:57;101647.25;;;29.04;30.11
16595;BME280;8410;52.532;13.336;2023-06-04T04:21:25;101649.03;;;29.72;29.48
16595;BME280;8410;52.532;13.336;2023-06-04T04:23:52;101642.09;;;30.02;28.68
16595;BME280;8410;52.532;13.336;2023-06-04T04:26:21;101652.41;;;30.40;28.42
16595;BME280;8410;52.532;13.336;2023-06-04T04:28:48;101651.25;;;30.44;27.70
16595;BME280;8410;52.532;13.336;2023-06-04T04:31:18;101655.13;;;31.59;26.91
16595;BME280;8410;52.532;13.336;2023-06-04T04:33:48;101647.91;;;31.90;26.53
16595;BME280;8410;52.532;13.336;2023-06-04T04:36:19;101651.72;;;31.86;26.94
16595;BME280;8410;52.532;13.336;2023-06-04T04:38:50;101655.41;;;30.80;26.78
16595;BME280;8410;52.532;13.336;2023-06-04T04:41:21;101654.06;;;28.91;29.20
16595;BME280;8410;52.532;13.336;2023-06-04T04:43:49;101668.13;;;27.19;31.17
16595;BME280;8410;52.532;13.336;2023-06-04T04:46:16;101675.59;;;25.71;32.19
16595;BME280;8410;52.532;13.336;2023-06-04T04:48:44;101676.09;;;24.50;33.38
16595;BME280;8410;52.532;13.336;2023-06-04T04:51:11;101688.28;;;23.26;35.16
16595;BME280;8410;52.532;13.336;2023-06-04T04:53:40;101692.88;;;23.50;35.06
16595;BME280;8410;52.532;13.336;2023-06-04T04:56:09;101684.19;;;24.12;34.50
16595;BME280;8410;52.532;13.336;2023-06-04T04:58:36;101689.72;;;22.64;36.29
16595;BME280;8410;52.532;13.336;2023-06-04T05:01:05;101702.84;;;20.69;38.61
16595;BME280;8410;52.532;13.336;2023-06-04T05:03:32;101700.84;;;20.85;38.83
16595;BME280;8410;52.532;13.336;2023-06-04T05:06:00;101690.34;;;22.74;36.55
16595;BME280;8410;52.532;13.336;2023-06-04T05:08:28;101692.97;;;23.47;35.15
16595;BME280;8410;52.532;13.336;2023-06-04T05:10:56;101689.22;;;22.86;36.08
16595;BME280;8410;52.532;13.336;2023-06-04T05:13:24;101696.16;;;22.50;37.12
16595;BME280;8410;52.532;13.336;2023-06-04T05:15:51;101701.75;;;21.41;39.47
16595;BME280;8410;52.532;13.336;2023-06-04T05:18:19;101695.72;;;21.84;39.61
16595;BME280;8410;52.532;13.336;2023-06-04T05:20:48;101691.31;;;21.35;40.63
16595;BME280;8410;52.532;13.336;2023-06-04T05:23:15;101697.91;;;20.44;42.74
16595;BME280;8410;52.532;13.336;2023-06-04T05:25:43;101710.59;;;20.04;43.52
16595;BME280;8410;52.532;13.336;2023-06-04T05:28:12;101703.94;;;20.49;42.53
16595;BME280;8410;52.532;13.336;2023-06-04T05:30:39;101703.00;;;20.57;42.32
16595;BME280;8410;52.532;13.336;2023-06-04T05:33:07;101700.56;;;20.41;42.82
16595;BME280;8410;52.532;13.336;2023-06-04T05:35:45;101706.38;;;21.22;41.11
16595;BME280;8410;52.532;13.336;2023-06-04T05:38:14;101702.22;;;20.48;41.88
16595;BME280;8410;52.532;13.336;2023-06-04T05:40:43;101703.56;;;20.80;41.78
16595;BME280;8410;52.532;13.336;2023-06-04T05:43:13;101711.63;;;20.63;41.81
16595;BME280;8410;52.532;13.336;2023-06-04T05:45:40;101719.25;;;20.11;43.30
16595;BME280;8410;52.532;13.336;2023-06-04T05:48:08;101713.69;;;20.38;43.06
16595;BME280;8410;52.532;13.336;2023-06-04T05:50:35;101705.09;;;20.93;42.18
16595;BME280;8410;52.532;13.336;2023-06-04T05:53:03;101715.69;;;20.16;42.64
16595;BME280;8410;52.532;13.336;2023-06-04T05:55:31;101718.72;;;19.81;43.44
16595;BME280;8410;52.532;13.336;2023-06-04T05:57:58;101710.94;;;20.49;42.39
16595;BME280;8410;52.532;13.336;2023-06-04T06:00:27;101717.28;;;20.95;41.34
16595;BME280;8410;52.532;13.336;2023-06-04T06:02:55;101708.84;;;20.74;41.50
16595;BME280;8410;52.532;13.336;2023-06-04T06:05:23;101715.66;;;20.87;41.80
16595;BME280;8410;52.532;13.336;2023-06-04T06:07:51;101716.53;;;20.20;40.51
16595;BME280;8410;52.532;13.336;2023-06-04T06:10:18;101724.78;;;20.59;40.18
16595;BME280;8410;52.532;13.336;2023-06-04T06:12:46;101730.06;;;20.56;41.14
16595;BME280;8410;52.532;13.336;2023-06-04T06:15:13;101719.69;;;21.10;40.81
16595;BME280;8410;52.532;13.336;2023-06-04T06:17:42;101724.84;;;21.14;40.47
16595;BME280;8410;52.532;13.336;2023-06-04T06:20:11;101723.09;;;21.15;39.52
16595;BME280;8410;52.532;13.336;2023-06-04T06:22:44;101720.75;;;20.97;39.63
16595;BME280;8410;52.532;13.336;2023-06-04T06:25:11;101735.09;;;19.94;40.94
16595;BME280;8410;52.532;13.336;2023-06-04T06:27:39;101720.25;;;21.30;39.45
16595;BME280;8410;52.532;13.336;2023-06-04T06:30:08;101721.41;;;21.65;38.53
16595;BME280;8410;52.532;13.336;2023-06-04T06:32:35;101709.28;;;25.10;34.56
16595;BME280;8410;52.532;13.336;2023-06-04T06:35:05;101701.97;;;26.88;31.70
16595;BME280;8410;52.532;13.336;2023-06-04T06:37:34;101716.78;;;25.49;31.54
16595;BME280;8410;52.532;13.336;2023-06-04T06:40:01;101703.41;;;26.52;31.41
16595;BME280;8410;52.532;13.336;2023-06-04T06:42:32;101705.84;;;26.33;31.34
16595;BME280;8410;52.532;13.336;2023-06-04T06:44:59;101706.47;;;25.43;32.18
16595;BME280;8410;52.532;13.336;2023-06-04T06:47:27;101718.94;;;25.09;31.99
16595;BME280;8410;52.532;13.336;2023-06-04T06:49:55;101721.31;;;24.02;32.55
16595;BME280;8410;52.532;13.336;2023-06-04T06:52:23;101729.28;;;23.31;34.17
16595;BME280;8410;52.532;13.336;2023-06-04T06:54:51;101723.38;;;22.84;34.49
16595;BME280;8410;52.532;13.336;2023-06-04T06:57:19;101727.75;;;22.84;33.67
16595;BME280;8410;52.532;13.336;2023-06-04T06:59:46;101722.66;;;22.78;34.24
16595;BME280;8410;52.532;13.336;2023-06-04T07:02:14;101726.97;;;22.80;35.16
16595;BME280;8410;52.532;13.336;2023-06-04T07:04:42;101726.53;;;22.61;34.30
16595;BME280;8410;52.532;13.336;2023-06-04T07:07:09;101730.03;;;22.60;33.77
16595;BME280;8410;52.532;13.336;2023-06-04T07:09:38;101726.56;;;22.58;34.09
16595;BME280;8410;52.532;13.336;2023-06-04T07:12:06;101730.31;;;22.48;33.80
16595;BME280;8410;52.532;13.336;2023-06-04T07:14:33;101727.91;;;22.78;33.87
16595;BME280;8410;52.532;13.336;2023-06-04T07:17:01;101731.56;;;22.71;33.79
16595;BME280;8410;52.532;13.336;2023-06-04T07:19:29;101726.44;;;22.64;33.31
16595;BME280;8410;52.532;13.336;2023-06-04T07:21:56;101729.97;;;22.63;33.59
16595;BME280;8410;52.532;13.336;2023-06-04T07:24:24;101733.16;;;22.37;34.19
16595;BME280;8410;52.532;13.336;2023-06-04T07:26:53;101730.72;;;22.68;34.38
16595;BME280;8410;52.532;13.336;2023-06-04T07:29:20;101720.97;;;22.74;33.83
16595;BME280;8410;52.532;13.336;2023-06-04T07:31:48;101725.69;;;22.59;33.70
16595;BME280;8410;52.532;13.336;2023-06-04T07:34:15;101726.84;;;22.46;33.17
16595;BME280;8410;52.532;13.336;2023-06-04T07:36:43;101728.34;;;22.58;33.58
16595;BME280;8410;52.532;13.336;2023-06-04T07:39:10;101733.34;;;21.82;33.38
16595;BME280;8410;52.532;13.336;2023-06-04T07:41:38;101735.88;;;22.31;32.70
16595;BME280;8410;52.532;13.336;2023-06-04T07:44:06;101736.78;;;21.84;33.24
16595;BME280;8410;52.532;13.336;2023-06-04T07:46:34;101747.03;;;21.46;33.56
16595;BME280;8410;52.532;13.336;2023-06-04T07:49:02;101731.97;;;22.07;33.19
16595;BME280;8410;52.532;13.336;2023-06-04T07:51:29;101725.78;;;22.11;33.38
16595;BME280;8410;52.532;13.336;2023-06-04T07:53:57;101732.91;;;21.01;33.94
16595;BME280;8410;52.532;13.336;2023-06-04T07:56:24;101728.97;;;21.80;33.67
16595;BME280;8410;52.532;13.336;2023-06-04T07:58:53;101731.69;;;21.22;33.44
16595;BME280;8410;52.532;13.336;2023-06-04T08:01:21;101723.63;;;21.87;33.06
16595;BME280;8410;52.532;13.336;2023-06-04T08:03:50;101724.09;;;22.51;32.18
16595;BME280;8410;52.532;13.336;2023-06-04T08:06:18;101733.19;;;21.41;33.61
16595;BME280;8410;52.532;13.336;2023-06-04T08:08:45;101736.47;;;20.97;33.58
16595;BME280;8410;52.532;13.336;2023-06-04T08:11:15;101726.25;;;21.87;33.04
16595;BME280;8410;52.532;13.336;2023-06-04T08:13:43;101735.84;;;21.36;33.39
16595;BME280;8410;52.532;13.336;2023-06-04T08:16:10;101727.63;;;22.06;32.44
16595;BME280;8410;52.532;13.336;2023-06-04T08:18:40;101730.88;;;22.20;32.74
16595;BME280;8410;52.532;13.336;2023-06-04T08:21:09;101723.00;;;22.20;32.68
16595;BME280;8410;52.532;13.336;2023-06-04T08:23:37;101733.88;;;21.51;33.51
16595;BME280;8410;52.532;13.336;2023-06-04T08:26:06;101733.63;;;21.66;33.36
16595;BME280;8410;52.532;13.336;2023-06-04T08:28:34;101733.34;;;21.27;33.49
16595;BME280;8410;52.532;13.336;2023-06-04T08:31:04;101733.84;;;20.97;34.40
16595;BME280;8410;52.532;13.336;2023-06-04T08:33:32;101727.78;;;21.50;33.64
16595;BME280;8410;52.532;13.336;2023-06-04T08:36:01;101734.84;;;21.95;32.80
16595;BME280;8410;52.532;13.336;2023-06-04T08:38:28;101734.19;;;21.29;32.63
16595;BME280;8410;52.532;13.336;2023-06-04T08:41:02;101731.66;;;21.77;32.78
16595;BME280;8410;52.532;13.336;2023-06-04T08:43:34;101726.28;;;21.84;32.58
16595;BME280;8410;52.532;13.336;2023-06-04T08:46:05;101739.50;;;21.79;32.46
16595;BME280;8410;52.532;13.336;2023-06-04T08:48:35;101735.41;;;21.64;32.88
16595;BME280;8410;52.532;13.336;2023-06-04T08:51:06;101737.59;;;21.39;32.82
16595;BME280;8410;52.532;13.336;2023-06-04T08:53:35;101730.91;;;22.17;32.44
16595;BME280;8410;52.532;13.336;2023-06-04T08:56:03;101738.34;;;22.39;31.89
16595;BME280;8410;52.532;13.336;2023-06-04T08:58:32;101732.84;;;22.90;31.45
16595;BME280;8410;52.532;13.336;2023-06-04T09:01:00;101730.03;;;22.60;31.62
16595;BME280;8410;52.532;13.336;2023-06-04T09:03:28;101737.06;;;22.58;31.86
16595;BME280;8410;52.532;13.336;2023-06-04T09:05:58;101733.69;;;21.63;32.25
16595;BME280;8410;52.532;13.336;2023-06-04T09:08:31;101740.50;;;21.73;31.92
16595;BME280;8410;52.532;13.336;2023-06-04T09:11:02;101735.16;;;21.25;33.08
16595;BME280;8410;52.532;13.336;2023-06-04T09:13:32;101738.84;;;21.66;32.43
16595;BME280;8410;52.532;13.336;2023-06-04T09:16:00;101727.75;;;22.00;32.12
16595;BME280;8410;52.532;13.336;2023-06-04T09:18:29;101742.25;;;21.71;33.02
16595;BME280;8410;52.532;13.336;2023-06-04T09:21:01;101749.47;;;21.60;32.27
16595;BME280;8410;52.532;13.336;2023-06-04T09:23:31;101738.06;;;21.61;31.91
16595;BME280;8410;52.532;13.336;2023-06-04T09:26:06;101733.50;;;22.20;31.88
16595;BME280;8410;52.532;13.336;2023-06-04T09:28:34;101734.53;;;22.10;31.73
16595;BME280;8410;52.532;13.336;2023-06-04T09:31:02;101730.59;;;21.88;32.67
16595;BME280;8410;52.532;13.336;2023-06-04T09:33:30;101736.31;;;21.62;32.58
16595;BME280;8410;52.532;13.336;2023-06-04T09:36:08;101728.25;;;22.62;31.26
16595;BME280;8410;52.532;13.336;2023-06-04T09:38:38;101726.97;;;22.80;31.06
16595;BME280;8410;52.532;13.336;2023-06-04T09:41:10;101728.16;;;22.65;31.48
16595;BME280;8410;52.532;13.336;2023-06-04T09:43:38;101733.41;;;22.65;31.61
16595;BME280;8410;52.532;13.336;2023-06-04T09:46:10;101728.72;;;23.19;31.09
16595;BME280;8410;52.532;13.336;2023-06-04T09:48:38;101735.47;;;23.29;31.17
16595;BME280;8410;52.532;13.336;2023-06-04T09:51:07;101731.53;;;21.84;32.00
16595;BME280;8410;52.532;13.336;2023-06-04T09:53:35;101731.28;;;22.83;31.11
16595;BME280;8410;52.532;13.336;2023-06-04T09:56:05;101735.88;;;22.33;31.52
16595;BME280;8410;52.532;13.336;2023-06-04T09:58:34;101728.28;;;23.36;31.04
16595;BME280;8410;52.532;13.336;2023-06-04T10:01:04;101723.91;;;23.00;31.74
16595;BME280;8410;52.532;13.336;2023-06-04T10:03:33;101735.50;;;22.05;31.73
16595;BME280;8410;52.532;13.336;2023-06-04T10:06:03;101724.53;;;22.31;31.18
16595;BME280;8410;52.532;13.336;2023-06-04T10:08:32;101718.72;;;22.97;31.10
16595;BME280;8410;52.532;13.336;2023-06-04T10:11:01;101721.06;;;22.30;31.25
16595;BME280;8410;52.532;13.336;2023-06-04T10:13:35;101727.69;;;22.03;31.49
16595;BME280;8410;52.532;13.336;2023-06-04T10:16:06;101722.69;;;22.75;31.10
16595;BME280;8410;52.532;13.336;2023-06-04T10:18:47;101720.41;;;23.70;30.04
16595;BME280;8410;52.532;13.336;2023-06-04T10:21:17;101715.00;;;23.76;29.94
16595;BME280;8410;52.532;13.336;2023-06-04T10:23:45;101713.09;;;23.81;30.23
16595;BME280;8410;52.532;13.336;2023-06-04T10:26:14;101709.31;;;23.91;30.70
16595;BME280;8410;52.532;13.336;2023-06-04T10:28:43;101708.19;;;24.00;30.48
16595;BME280;8410;52.532;13.336;2023-06-04T10:31:11;101722.19;;;23.35;30.04
16595;BME280;8410;52.532;13.336;2023-06-04T10:33:39;101721.50;;;22.88;30.69
16595;BME280;8410;52.532;13.336;2023-06-04T10:36:18;101717.75;;;22.62;31.19
16595;BME280;8410;52.532;13.336;2023-06-04T10:38:46;101719.00;;;22.44;30.58
16595;BME280;8410;52.532;13.336;2023-06-04T10:41:15;101725.09;;;21.55;31.59
16595;BME280;8410;52.532;13.336;2023-06-04T10:43:45;101715.22;;;22.95;30.83
16595;BME280;8410;52.532;13.336;2023-06-04T10:46:13;101720.84;;;22.39;30.40
16595;BME280;8410;52.532;13.336;2023-06-04T10:48:48;101722.25;;;22.12;30.81
16595;BME280;8410;52.532;13.336;2023-06-04T10:51:28;101715.41;;;22.05;31.17
16595;BME280;8410;52.532;13.336;2023-06-04T10:53:57;101728.75;;;21.45;31.13
16595;BME280;8410;52.532;13.336;2023-06-04T10:56:26;101725.69;;;21.69;32.05
16595;BME280;8410;52.532;13.336;2023-06-04T10:58:55;101711.16;;;22.83;30.43
16595;BME280;8410;52.532;13.336;2023-06-04T11:01:24;101713.28;;;22.26;30.46
16595;BME280;8410;52.532;13.336;2023-06-04T11:03:52;101711.06;;;22.48;30.59
16595;BME280;8410;52.532;13.336;2023-06-04T11:06:20;101705.59;;;22.96;30.18
16595;BME280;8410;52.532;13.336;2023-06-04T11:08:48;101710.84;;;22.97;30.12
16595;BME280;8410;52.532;13.336;2023-06-04T11:11:16;101707.44;;;22.53;30.43
16595;BME280;8410;52.532;13.336;2023-06-04T11:13:44;101712.91;;;21.99;30.66
16595;BME280;8410;52.532;13.336;2023-06-04T11:16:16;101704.00;;;22.51;30.13
16595;BME280;8410;52.532;13.336;2023-06-04T11:18:54;101705.59;;;22.15;30.39
16595;BME280;8410;52.532;13.336;2023-06-04T11:21:22;101697.97;;;22.85;30.36
16595;BME280;8410;52.532;13.336;2023-06-04T11:23:55;101698.38;;;22.66;29.45
16595;BME280;8410;52.532;13.336;2023-06-04T11:26:29;101698.13;;;22.79;29.94
16595;BME280;8410;52.532;13.336;2023-06-04T11:28:57;101696.41;;;22.78;29.36
16595;BME280;8410;52.532;13.336;2023-06-04T11:31:26;101697.34;;;23.13;29.37
16595;BME280;8410;52.532;13.336;2023-06-04T11:33:54;101686.78;;;24.14;28.94
16595;BME280;8410;52.532;13.336;2023-06-04T11:36:22;101696.34;;;23.52;29.58
16595;BME280;8410;52.532;13.336;2023-06-04T11:38:55;101692.03;;;23.50;29.11
16595;BME280;8410;52.532;13.336;2023-06-04T11:41:24;101680.16;;;24.01;28.61
16595;BME280;8410;52.532;13.336;2023-06-04T11:43:55;101681.63;;;24.40;28.57
16595;BME280;8410;52.532;13.336;2023-06-04T11:46:23;101680.41;;;24.21;28.80
16595;BME280;8410;52.532;13.336;2023-06-04T11:48:52;101679.53;;;24.52;27.92
16595;BME280;8410;52.532;13.336;2023-06-04T11:51:20;101673.00;;;24.35;28.31
16595;BME280;8410;52.532;13.336;2023-06-04T11:53:48;101679.72;;;24.46;28.54
16595;BME280;8410;52.532;13.336;2023-06-04T11:56:17;101686.84;;;23.13;29.65
16595;BME280;8410;52.532;13.336;2023-06-04T11:58:45;101687.50;;;22.83;30.06
16595;BME280;8410;52.532;13.336;2023-06-04T12:01:13;101684.38;;;22.67;30.00
16595;BME280;8410;52.532;13.336;2023-06-04T12:03:41;101691.16;;;23.15;29.97
16595;BME280;8410;52.532;13.336;2023-06-04T12:06:18;101672.69;;;23.85;29.11
16595;BME280;8410;52.532;13.336;2023-06-04T12:08:49;101677.41;;;23.72;29.39
16595;BME280;8410;52.532;13.336;2023-06-04T12:11:27;101675.38;;;23.49;29.53
16595;BME280;8410;52.532;13.336;2023-06-04T12:13:58;101685.59;;;22.90;30.39
16595;BME280;8410;52.532;13.336;2023-06-04T12:16:27;101675.38;;;23.49;29.17
16595;BME280;8410;52.532;13.336;2023-06-04T12:19:05;101668.31;;;23.17;29.29
16595;BME280;8410;52.532;13.336;2023-06-04T12:21:35;101668.75;;;23.67;29.20
16595;BME280;8410;52.532;13.336;2023-06-04T12:24:07;101660.81;;;24.31;28.71
16595;BME280;8410;52.532;13.336;2023-06-04T12:26:36;101658.91;;;24.36;28.60
16595;BME280;8410;52.532;13.336;2023-06-04T12:29:07;101663.66;;;23.94;28.83
16595;BME280;8410;52.532;13.336;2023-06-04T12:31:38;101655.66;;;24.28;28.45
16595;BME280;8410;52.532;13.336;2023-06-04T12:34:06;101661.97;;;24.23;28.86
16595;BME280;8410;52.532;13.336;2023-06-04T12:36:35;101664.00;;;23.15;29.22
16595;BME280;8410;52.532;13.336;2023-06-04T12:39:03;101663.78;;;23.24;29.49
16595;BME280;8410;52.532;13.336;2023-06-04T12:41:31;101660.91;;;23.33;29.51
16595;BME280;8410;52.532;13.336;2023-06-04T12:44:01;101664.59;;;22.90;30.28
16595;BME280;8410;52.532;13.336;2023-06-04T12:46:29;101667.38;;;22.84;29.73
16595;BME280;8410;52.532;13.336;2023-06-04T12:48:56;101663.72;;;23.25;30.10
16595;BME280;8410;52.532;13.336;2023-06-04T12:51:24;101668.03;;;22.92;29.34
16595;BME280;8410;52.532;13.336;2023-06-04T12:53:53;101667.31;;;23.23;29.48
16595;BME280;8410;52.532;13.336;2023-06-04T12:56:20;101666.81;;;23.41;29.63
16595;BME280;8410;52.532;13.336;2023-06-04T12:58:48;101669.66;;;22.99;29.72